createdAt,value
2023-03-04T00:00:43.230Z,99206.63
2023-03-04T00:03:15.335Z,99207.03
2023-03-04T00:05:42.029Z,99204.81
2023-03-04T00:08:08.516Z,99202.81
2023-03-04T00:10:35.025Z,99218.56
2023-03-04T00:13:01.553Z,99208.19
2023-03-04T00:15:28.034Z,99212.19
2023-03-04T00:17:54.526Z,99200.91
2023-03-04T00:20:21.054Z,99215.75
2023-03-04T00:22:48.120Z,99208.84
2023-03-04T00:25:14.967Z,99207.16
2023-03-04T00:27:41.535Z,99202.44
2023-03-04T00:30:09.540Z,99201.63
2023-03-04T00:32:36.312Z,99208.84
2023-03-04T00:35:03.803Z,99208.56
2023-03-04T00:37:30.311Z,99202.56
2023-03-04T00:39:56.756Z,99205.91
2023-03-04T00:42:23.216Z,99206.91
2023-03-04T00:44:49.698Z,99209.38
2023-03-04T00:47:16.153Z,99203.59
2023-03-04T00:49:42.676Z,99204.78
2023-03-04T00:52:09.329Z,99200.88
2023-03-04T00:54:35.852Z,99195.34
2023-03-04T00:57:02.353Z,99203.66
2023-03-04T00:59:28.886Z,99201.53
2023-03-04T01:01:55.354Z,99205.69
2023-03-04T01:04:21.884Z,99202.56
2023-03-04T01:06:48.343Z,99201.91
2023-03-04T01:09:14.837Z,99203.28
2023-03-04T01:11:41.343Z,99201.16
2023-03-04T01:14:07.854Z,99191.94
2023-03-04T01:16:34.791Z,99191.22
2023-03-04T01:19:01.447Z,99197.84
2023-03-04T01:21:27.942Z,99189.56
2023-03-04T01:23:55.511Z,99185.94
2023-03-04T01:26:22.156Z,99187.16
2023-03-04T01:28:48.637Z,99184.56
2023-03-04T01:31:15.141Z,99186.03
2023-03-04T01:33:41.629Z,99183.53
2023-03-04T01:36:09.878Z,99178.59
2023-03-04T01:38:36.426Z,99174.34
2023-03-04T01:41:03.017Z,99167.69
2023-03-04T01:43:31.305Z,99171.19
2023-03-04T01:45:58.766Z,99170.41
2023-03-04T01:48:28.132Z,99163.31
2023-03-04T01:50:55.090Z,99154.28
2023-03-04T01:53:25.166Z,99150.03
2023-03-04T01:55:58.171Z,99151.50
2023-03-04T01:58:31.081Z,99148.88
2023-03-04T02:00:58.086Z,99153.13
2023-03-04T02:03:25.015Z,99148.03
2023-03-04T02:05:53.513Z,99152.75
2023-03-04T02:08:22.819Z,99144.25
2023-03-04T02:10:50.721Z,99143.06
2023-03-04T02:13:17.541Z,99136.22
2023-03-04T02:15:45.832Z,99141.84
2023-03-04T02:18:17.108Z,99142.97
2023-03-04T02:21:04.330Z,99136.53
2023-03-04T02:23:56.002Z,99134.13
2023-03-04T02:26:24.943Z,99138.19
2023-03-04T02:28:54.280Z,99139.09
2023-03-04T02:31:34.568Z,99133.09
2023-03-04T02:34:04.649Z,99126.19
2023-03-04T02:36:32.312Z,99126.38
2023-03-04T02:39:15.644Z,99125.16
2023-03-04T02:41:44.418Z,99119.72
2023-03-04T02:44:21.623Z,99125.94
2023-03-04T02:46:50.464Z,99127.41
2023-03-04T02:49:17.853Z,99124.66
2023-03-04T02:51:45.058Z,99123.34
2023-03-04T02:54:20.010Z,99125.25
2023-03-04T02:56:51.843Z,99124.84
2023-03-04T02:59:19.517Z,99128.91
2023-03-04T03:01:46.640Z,99130.00
2023-03-04T03:04:13.939Z,99123.00
2023-03-04T03:06:41.969Z,99123.09
2023-03-04T03:09:08.899Z,99118.63
2023-03-04T03:11:35.734Z,99119.59
2023-03-04T03:14:03.776Z,99120.13
2023-03-04T03:16:30.658Z,99114.53
2023-03-04T03:18:57.549Z,99119.50
2023-03-04T03:21:24.707Z,99114.13
2023-03-04T03:23:51.204Z,99119.19
2023-03-04T03:26:18.821Z,99117.28
2023-03-04T03:28:45.428Z,99116.44
2023-03-04T03:31:12.121Z,99118.63
2023-03-04T03:33:38.678Z,99117.34
2023-03-04T03:36:06.405Z,99124.94
2023-03-04T03:38:32.995Z,99125.28
2023-03-04T03:40:59.434Z,99121.53
2023-03-04T03:43:25.929Z,99127.03
2023-03-04T03:45:52.388Z,99124.53
2023-03-04T03:48:18.855Z,99125.97
2023-03-04T03:50:45.699Z,99128.97
2023-03-04T03:53:12.245Z,99128.13
2023-03-04T03:55:39.104Z,99135.25
2023-03-04T03:58:05.761Z,99130.47
2023-03-04T04:00:32.247Z,99126.28
2023-03-04T04:03:00.427Z,99128.44
2023-03-04T04:05:26.990Z,99130.78
2023-03-04T04:07:54.276Z,99128.19
2023-03-04T04:10:21.528Z,99119.28
2023-03-04T04:12:48.090Z,99119.69
2023-03-04T04:15:14.590Z,99127.94
2023-03-04T04:17:41.064Z,99123.69
2023-03-04T04:20:09.511Z,99130.56
2023-03-04T04:22:36.008Z,99126.81
2023-03-04T04:25:02.575Z,99130.47
2023-03-04T04:27:29.065Z,99127.47
2023-03-04T04:29:55.541Z,99128.44
2023-03-04T04:32:22.031Z,99120.00
2023-03-04T04:34:48.643Z,99124.31
2023-03-04T04:37:15.137Z,99119.16
2023-03-04T04:39:41.825Z,99129.13
2023-03-04T04:42:10.887Z,99121.91
2023-03-04T04:44:38.925Z,99124.38
2023-03-04T04:47:07.233Z,99127.22
2023-03-04T04:49:33.789Z,99128.66
2023-03-04T04:52:00.242Z,99123.41
2023-03-04T04:54:26.926Z,99125.72
2023-03-04T04:56:53.555Z,99128.03
2023-03-04T04:59:20.059Z,99120.97
2023-03-04T05:01:46.723Z,99135.03
2023-03-04T05:04:13.195Z,99126.91
2023-03-04T05:06:39.821Z,99130.47
2023-03-04T05:09:07.099Z,99132.38
2023-03-04T05:11:34.141Z,99135.91
2023-03-04T05:14:00.771Z,99130.59
2023-03-04T05:16:27.654Z,99130.16
2023-03-04T05:18:54.441Z,99127.13
2023-03-04T05:21:21.015Z,99128.44
2023-03-04T05:23:47.757Z,99129.22
2023-03-04T05:26:17.063Z,99127.63
2023-03-04T05:28:44.180Z,99123.56
2023-03-04T05:31:11.250Z,99127.75
2023-03-04T05:33:38.442Z,99133.19
2023-03-04T05:36:06.461Z,99129.59
2023-03-04T05:38:33.405Z,99127.75
2023-03-04T05:41:03.662Z,99135.13
2023-03-04T05:43:30.729Z,99132.91
2023-03-04T05:45:57.386Z,99134.22
2023-03-04T05:48:23.936Z,99133.66
2023-03-04T05:50:57.927Z,99128.13
2023-03-04T05:53:25.044Z,99127.97
2023-03-04T05:55:51.856Z,99122.88
2023-03-04T05:58:18.876Z,99127.22
2023-03-04T06:00:45.693Z,99127.22
2023-03-04T06:03:16.969Z,99135.78
2023-03-04T06:05:43.644Z,99140.09
2023-03-04T06:08:11.410Z,99136.41
2023-03-04T06:10:39.941Z,99135.13
2023-03-04T06:13:07.037Z,99137.94
2023-03-04T06:15:33.550Z,99136.88
2023-03-04T06:18:00.040Z,99135.41
2023-03-04T06:20:26.537Z,99141.00
2023-03-04T06:22:53.041Z,99141.66
2023-03-04T06:25:20.144Z,99142.84
2023-03-04T06:27:46.615Z,99151.06
2023-03-04T06:30:13.723Z,99150.78
2023-03-04T06:32:40.358Z,99150.78
2023-03-04T06:35:07.153Z,99148.81
2023-03-04T06:37:33.613Z,99153.00
2023-03-04T06:40:00.101Z,99148.81
2023-03-04T06:42:26.603Z,99153.69
2023-03-04T06:44:53.089Z,99159.28
2023-03-04T06:47:19.623Z,99167.28
2023-03-04T06:49:46.109Z,99175.53
2023-03-04T06:52:12.999Z,99169.56
2023-03-04T06:54:39.995Z,99168.34
2023-03-04T06:57:07.378Z,99175.72
2023-03-04T06:59:34.403Z,99172.88
2023-03-04T07:02:00.976Z,99175.06
2023-03-04T07:04:27.638Z,99174.94
2023-03-04T07:06:54.138Z,99175.28
2023-03-04T07:09:20.597Z,99177.25
2023-03-04T07:11:47.052Z,99178.63
2023-03-04T07:14:13.652Z,99184.75
2023-03-04T07:16:40.367Z,99189.34
2023-03-04T07:19:07.196Z,99189.09
2023-03-04T07:21:33.719Z,99192.31
2023-03-04T07:24:00.267Z,99204.25
2023-03-04T07:26:26.756Z,99202.69
2023-03-04T07:28:54.538Z,99203.47
2023-03-04T07:31:25.316Z,99204.75
2023-03-04T07:33:52.240Z,99208.09
2023-03-04T07:36:19.882Z,99205.28
2023-03-04T07:38:48.443Z,99212.13
2023-03-04T07:41:15.877Z,99207.69
2023-03-04T07:43:42.871Z,99206.72
2023-03-04T07:46:10.137Z,99212.03
2023-03-04T07:48:37.415Z,99211.59
2023-03-04T07:51:13.773Z,99208.94
2023-03-04T07:53:42.052Z,99215.25
2023-03-04T07:56:13.082Z,99218.94
2023-03-04T07:58:40.072Z,99221.25
2023-03-04T08:01:15.352Z,99227.03
2023-03-04T08:03:42.263Z,99217.44
2023-03-04T08:06:11.570Z,99207.22
2023-03-04T08:08:38.454Z,99214.59
2023-03-04T08:11:07.117Z,99216.72
2023-03-04T08:13:34.604Z,99219.69
2023-03-04T08:16:01.201Z,99215.94
2023-03-04T08:18:27.784Z,99212.03
2023-03-04T08:20:54.308Z,99210.06
2023-03-04T08:23:21.030Z,99210.75
2023-03-04T08:25:48.004Z,99223.81
2023-03-04T08:28:14.505Z,99216.25
2023-03-04T08:30:41.689Z,99212.53
2023-03-04T08:33:09.028Z,99216.75
2023-03-04T08:35:40.424Z,99214.25
2023-03-04T08:38:07.430Z,99212.81
2023-03-04T08:40:33.971Z,99208.44
2023-03-04T08:43:00.739Z,99201.34
2023-03-04T08:45:27.287Z,99203.59
2023-03-04T08:47:53.786Z,99201.91
2023-03-04T08:50:22.561Z,99202.56
2023-03-04T08:52:49.342Z,99198.97
2023-03-04T08:55:15.886Z,99203.22
2023-03-04T08:57:42.440Z,99201.72
2023-03-04T09:00:09.730Z,99206.44
2023-03-04T09:02:36.250Z,99199.94
2023-03-04T09:05:02.794Z,99207.56
2023-03-04T09:07:29.355Z,99206.09
2023-03-04T09:09:56.249Z,99207.66
2023-03-04T09:12:22.745Z,99198.78
2023-03-04T09:15:01.082Z,99204.56
2023-03-04T09:17:35.054Z,99197.34
2023-03-04T09:20:04.306Z,99200.41
2023-03-04T09:22:31.008Z,99200.63
2023-03-04T09:24:57.537Z,99203.50
2023-03-04T09:27:24.134Z,99211.19
2023-03-04T09:29:50.644Z,99202.19
2023-03-04T09:32:17.441Z,99210.13
2023-03-04T09:34:43.981Z,99205.25
2023-03-04T09:37:10.584Z,99213.34
2023-03-04T09:39:37.254Z,99213.84
2023-03-04T09:42:06.322Z,99212.91
2023-03-04T09:44:36.796Z,99209.53
2023-03-04T09:47:08.155Z,99211.94
2023-03-04T09:49:40.149Z,99208.13
2023-03-04T09:52:27.405Z,99214.09
2023-03-04T09:55:04.782Z,99221.09
2023-03-04T09:57:37.155Z,99220.00
2023-03-04T10:00:20.206Z,99217.63
2023-03-04T10:03:09.856Z,99217.84
2023-03-04T10:06:05.680Z,99222.13
2023-03-04T10:08:40.232Z,99215.22
2023-03-04T10:11:14.495Z,99223.03
2023-03-04T10:13:59.333Z,99217.00
2023-03-04T10:16:40.717Z,99213.66
2023-03-04T10:19:22.633Z,99213.47
2023-03-04T10:21:51.204Z,99211.91
2023-03-04T10:24:22.507Z,99219.25
2023-03-04T10:26:54.407Z,99211.03
2023-03-04T10:29:24.277Z,99210.91
2023-03-04T10:31:51.520Z,99212.31
2023-03-04T10:36:56.928Z,99207.13
2023-03-04T10:39:28.500Z,99208.69
2023-03-04T10:41:58.809Z,99202.06
2023-03-04T10:44:25.973Z,99212.63
2023-03-04T10:46:55.203Z,99210.38
2023-03-04T10:49:24.694Z,99206.44
2023-03-04T10:52:23.712Z,99209.22
2023-03-04T10:54:53.610Z,99208.16
2023-03-04T10:57:20.098Z,99209.69
2023-03-04T10:59:59.307Z,99194.25
2023-03-04T11:02:28.063Z,99196.16
2023-03-04T11:05:05.444Z,99197.72
2023-03-04T11:07:43.585Z,99197.78
2023-03-04T11:10:20.378Z,99181.47
2023-03-04T11:12:52.777Z,99184.63
2023-03-04T11:15:27.379Z,99185.06
2023-03-04T11:17:59.153Z,99179.44
2023-03-04T11:20:43.451Z,99175.97
2023-03-04T11:23:16.853Z,99181.22
2023-03-04T11:25:55.751Z,99166.44
2023-03-04T11:28:42.119Z,99167.41
2023-03-04T11:31:38.318Z,99161.53
2023-03-04T11:34:44.662Z,99166.59
2023-03-04T11:37:32.310Z,99154.88
2023-03-04T11:40:07.174Z,99161.91
2023-03-04T11:42:42.305Z,99155.53
2023-03-04T11:45:28.779Z,99156.44
2023-03-04T11:48:28.105Z,99154.09
2023-03-04T11:50:59.877Z,99154.13
2023-03-04T11:53:54.786Z,99152.16
2023-03-04T11:56:35.062Z,99142.28
2023-03-04T11:59:17.541Z,99136.59
2023-03-04T12:01:59.662Z,99129.34
2023-03-04T12:04:39.111Z,99132.09
2023-03-04T12:07:31.614Z,99131.69
2023-03-04T12:10:16.234Z,99128.38
2023-03-04T12:13:04.273Z,99127.13
2023-03-04T12:16:00.410Z,99124.91
2023-03-04T12:19:11.724Z,99125.00
2023-03-04T12:22:07.133Z,99117.47
2023-03-04T12:24:39.272Z,99111.97
2023-03-04T12:27:23.199Z,99111.97
2023-03-04T12:29:58.617Z,99108.84
2023-03-04T12:32:46.784Z,99104.03
2023-03-04T12:35:35.373Z,99111.22
2023-03-04T12:38:32.651Z,99097.16
2023-03-04T12:41:30.052Z,99101.19
2023-03-04T12:44:17.015Z,99095.66
2023-03-04T12:47:06.994Z,99093.97
2023-03-04T12:50:02.677Z,99094.09
2023-03-04T12:52:46.728Z,99088.91
2023-03-04T12:55:18.818Z,99086.13
2023-03-04T12:57:46.572Z,99095.38
2023-03-04T13:00:12.997Z,99099.25
2023-03-04T13:02:56.633Z,99091.66
2023-03-04T13:06:03.807Z,99099.09
2023-03-04T13:08:45.858Z,99091.66
2023-03-04T13:11:31.178Z,99087.38
2023-03-04T13:14:23.301Z,99091.94
2023-03-04T13:16:52.314Z,99081.91
2023-03-04T13:19:46.593Z,99085.16
2023-03-04T13:22:48.290Z,99080.78
2023-03-04T13:25:39.311Z,99074.88
2023-03-04T13:28:11.199Z,99082.88
2023-03-04T13:30:40.660Z,99075.84
2023-03-04T13:33:19.068Z,99076.28
2023-03-04T13:36:00.030Z,99074.66
2023-03-04T13:38:34.248Z,99072.31
2023-03-04T13:41:28.672Z,99072.16
2023-03-04T13:43:56.576Z,99069.13
2023-03-04T13:46:23.828Z,99069.00
2023-03-04T13:48:50.552Z,99065.13
2023-03-04T13:51:29.345Z,99066.09
2023-03-04T13:53:59.361Z,99067.34
2023-03-04T13:56:37.766Z,99061.94
2023-03-04T13:59:07.428Z,99060.81
2023-03-04T14:01:42.928Z,99066.19
2023-03-04T14:04:15.499Z,99059.00
2023-03-04T14:06:44.195Z,99052.22
2023-03-04T14:09:15.984Z,99056.53
2023-03-04T14:11:43.805Z,99049.09
2023-03-04T14:14:18.510Z,99059.28
2023-03-04T14:16:52.314Z,99054.00
2023-03-04T14:19:27.625Z,99050.69
2023-03-04T14:21:55.221Z,99040.97
2023-03-04T14:24:23.158Z,99041.22
2023-03-04T14:26:50.584Z,99039.81
2023-03-04T14:29:24.137Z,99037.06
2023-03-04T14:31:51.506Z,99031.13
2023-03-04T14:34:32.886Z,99031.34
2023-03-04T14:37:00.186Z,99025.91
2023-03-04T14:39:30.818Z,99032.78
2023-03-04T14:42:03.351Z,99028.47
2023-03-04T14:44:48.497Z,99022.66
2023-03-04T14:47:30.523Z,99016.81
2023-03-04T14:49:57.402Z,99006.88
2023-03-04T14:52:41.226Z,99012.47
2023-03-04T14:55:36.840Z,99009.19
2023-03-04T14:58:20.169Z,99013.63
2023-03-04T15:00:48.134Z,99000.75
2023-03-04T15:03:22.508Z,98996.56
2023-03-04T15:05:49.618Z,99000.47
2023-03-04T15:08:24.063Z,98996.78
2023-03-04T15:11:20.581Z,99002.97
2023-03-04T15:13:50.540Z,98996.66
2023-03-04T15:16:19.826Z,98990.81
2023-03-04T15:19:23.463Z,98986.41
2023-03-04T15:21:49.922Z,98993.88
2023-03-04T15:24:16.367Z,98989.47
2023-03-04T15:26:43.856Z,98992.53
2023-03-04T15:29:17.188Z,98987.03
2023-03-04T15:31:44.494Z,98982.44
2023-03-04T15:34:19.516Z,98976.97
2023-03-04T15:36:49.141Z,98988.19
2023-03-04T15:39:17.292Z,98984.88
2023-03-04T15:41:46.456Z,98983.03
2023-03-04T15:44:13.122Z,98973.22
2023-03-04T15:46:39.681Z,98979.59
2023-03-04T15:49:06.217Z,98975.09
2023-03-04T15:51:32.824Z,98978.78
2023-03-04T15:54:00.190Z,98976.72
2023-03-04T15:56:29.532Z,98981.94
2023-03-04T15:58:58.748Z,98974.03
2023-03-04T16:01:25.769Z,98975.66
2023-03-04T16:03:53.821Z,98972.41
2023-03-04T16:06:24.178Z,98981.50
2023-03-04T16:08:51.667Z,98976.94
2023-03-04T16:11:24.168Z,98980.34
2023-03-04T16:13:50.742Z,98982.41
2023-03-04T16:16:17.738Z,98984.84
2023-03-04T16:18:45.001Z,98985.38
2023-03-04T16:21:14.514Z,98987.13
2023-03-04T16:23:43.445Z,98985.03
2023-03-04T16:26:16.889Z,98985.47
2023-03-04T16:28:43.748Z,98976.72
2023-03-04T16:31:12.076Z,98978.69
2023-03-04T16:33:38.733Z,98982.66
2023-03-04T16:36:14.525Z,98980.28
2023-03-04T16:38:41.747Z,98978.84
2023-03-04T16:41:13.174Z,98980.31
2023-03-04T16:43:42.949Z,98983.31
2023-03-04T16:46:13.407Z,98980.59
2023-03-04T16:48:41.045Z,98982.91
2023-03-04T16:51:15.673Z,98984.66
2023-03-04T16:53:44.754Z,98981.94
2023-03-04T16:56:14.786Z,98984.28
2023-03-04T16:58:42.416Z,98982.22
2023-03-04T17:01:24.119Z,98986.78
2023-03-04T17:03:50.654Z,98982.72
2023-03-04T17:06:17.694Z,98981.84
2023-03-04T17:08:44.465Z,98971.75
2023-03-04T17:11:14.294Z,98979.25
2023-03-04T17:13:40.751Z,98978.91
2023-03-04T17:16:07.322Z,98979.31
2023-03-04T17:18:33.861Z,98985.25
2023-03-04T17:21:05.965Z,98982.47
2023-03-04T17:23:34.920Z,98983.09
2023-03-04T17:26:01.824Z,98982.88
2023-03-04T17:28:28.351Z,98983.91
2023-03-04T17:30:55.023Z,98979.22
2023-03-04T17:33:22.023Z,98986.63
2023-03-04T17:35:48.613Z,98985.69
2023-03-04T17:38:15.740Z,98988.47
2023-03-04T17:40:42.521Z,98981.59
2023-03-04T17:43:11.313Z,98985.03
2023-03-04T17:45:39.723Z,98976.41
2023-03-04T17:48:07.366Z,98979.13
2023-03-04T17:50:34.730Z,98982.03
2023-03-04T17:53:01.216Z,98977.22
2023-03-04T17:55:27.733Z,98977.22
2023-03-04T17:57:55.574Z,98983.41
2023-03-04T18:00:22.460Z,98984.66
2023-03-04T18:02:48.962Z,98981.63
2023-03-04T18:05:16.172Z,98973.25
2023-03-04T18:07:42.653Z,98977.19
2023-03-04T18:10:09.607Z,98985.31
2023-03-04T18:12:36.096Z,98982.13
2023-03-04T18:15:02.609Z,98980.47
2023-03-04T18:17:29.066Z,98976.75
2023-03-04T18:19:56.684Z,98962.75
2023-03-04T18:22:23.196Z,98965.50
2023-03-04T18:24:49.661Z,98968.41
2023-03-04T18:27:16.156Z,98964.84
2023-03-04T18:29:42.705Z,98952.72
2023-03-04T18:32:09.238Z,98958.53
2023-03-04T18:34:35.810Z,98953.72
2023-03-04T18:37:02.361Z,98955.66
2023-03-04T18:39:28.880Z,98950.56
2023-03-04T18:41:55.388Z,98953.03
2023-03-04T18:44:21.857Z,98953.34
2023-03-04T18:46:53.580Z,98950.44
2023-03-04T18:49:20.905Z,98954.41
2023-03-04T18:51:47.441Z,98953.03
2023-03-04T18:54:14.228Z,98951.25
2023-03-04T18:56:51.404Z,98958.44
2023-03-04T18:59:23.032Z,98956.09
2023-03-04T19:01:52.903Z,98959.53
2023-03-04T19:04:23.219Z,98962.66
2023-03-04T19:06:49.920Z,98955.81
2023-03-04T19:09:16.452Z,98964.97
2023-03-04T19:11:42.948Z,98958.53
2023-03-04T19:14:11.596Z,98972.00
2023-03-04T19:16:38.806Z,98969.41
2023-03-04T19:19:05.628Z,98970.22
2023-03-04T19:21:32.523Z,98960.47
2023-03-04T19:23:58.976Z,98962.38
2023-03-04T19:26:25.449Z,98963.91
2023-03-04T19:28:51.905Z,98966.53
2023-03-04T19:31:18.345Z,98964.72
2023-03-04T19:33:44.798Z,98966.25
2023-03-04T19:36:11.308Z,98965.69
2023-03-04T19:38:38.327Z,98961.56
2023-03-04T19:41:13.095Z,98953.03
2023-03-04T19:43:40.273Z,98947.00
2023-03-04T19:46:08.649Z,98944.53
2023-03-04T19:48:37.058Z,98943.16
2023-03-04T19:51:04.998Z,98940.84
2023-03-04T19:53:34.588Z,98938.47
2023-03-04T19:56:01.459Z,98937.53
2023-03-04T19:58:28.015Z,98939.19
2023-03-04T20:00:56.090Z,98936.31
2023-03-04T20:03:23.995Z,98940.41
2023-03-04T20:05:50.521Z,98934.53
2023-03-04T20:08:17.107Z,98934.91
2023-03-04T20:10:43.671Z,98935.34
2023-03-04T20:13:10.346Z,98930.78
2023-03-04T20:15:37.506Z,98928.22
2023-03-04T20:18:04.442Z,98931.50
2023-03-04T20:20:31.002Z,98940.28
2023-03-04T20:22:57.921Z,98941.50
2023-03-04T20:25:25.081Z,98936.41
2023-03-04T20:27:51.578Z,98945.75
2023-03-04T20:30:18.357Z,98949.44
2023-03-04T20:32:45.331Z,98933.25
2023-03-04T20:35:14.990Z,98944.50
2023-03-04T20:37:42.250Z,98939.44
2023-03-04T20:40:11.291Z,98941.75
2023-03-04T20:42:37.773Z,98934.34
2023-03-04T20:45:04.971Z,98937.47
2023-03-04T20:47:31.504Z,98942.84
2023-03-04T20:49:58.064Z,98942.97
2023-03-04T20:52:25.325Z,98938.16
2023-03-04T20:54:51.891Z,98939.69
2023-03-04T20:57:18.331Z,98941.03
2023-03-04T20:59:44.814Z,98937.63
2023-03-04T21:02:14.705Z,98937.22
2023-03-04T21:04:41.420Z,98934.50
2023-03-04T21:07:07.875Z,98932.47
2023-03-04T21:09:34.339Z,98931.06
2023-03-04T21:12:01.202Z,98922.19
2023-03-04T21:14:30.052Z,98924.50
2023-03-04T21:16:59.048Z,98918.84
2023-03-04T21:19:28.696Z,98922.13
2023-03-04T21:21:56.445Z,98923.25
2023-03-04T21:24:25.892Z,98930.66
2023-03-04T21:26:52.432Z,98922.28
2023-03-04T21:29:21.320Z,98927.63
2023-03-04T21:31:52.052Z,98924.88
2023-03-04T21:34:31.831Z,98928.06
2023-03-04T21:36:58.277Z,98928.03
2023-03-04T21:39:25.143Z,98921.47
2023-03-04T21:41:52.718Z,98932.19
2023-03-04T21:44:28.402Z,98926.97
2023-03-04T21:47:01.055Z,98924.34
2023-03-04T21:49:28.322Z,98923.09
2023-03-04T21:51:55.211Z,98924.47
2023-03-04T21:54:22.263Z,98924.50
2023-03-04T21:56:50.154Z,98922.41
2023-03-04T21:59:20.012Z,98924.06
2023-03-04T22:01:46.763Z,98912.81
2023-03-04T22:04:13.458Z,98916.25
2023-03-04T22:06:41.238Z,98911.69
2023-03-04T22:09:07.939Z,98916.25
2023-03-04T22:11:34.458Z,98916.50
2023-03-04T22:14:02.735Z,98913.91
2023-03-04T22:16:30.250Z,98913.66
2023-03-04T22:18:56.991Z,98907.19
2023-03-04T22:21:23.569Z,98906.25
2023-03-04T22:23:50.129Z,98907.72
2023-03-04T22:26:19.451Z,98903.91
2023-03-04T22:28:46.803Z,98906.50
2023-03-04T22:31:19.269Z,98907.97
2023-03-04T22:33:46.327Z,98904.59
2023-03-04T22:36:13.716Z,98907.59
2023-03-04T22:38:40.750Z,98900.03
2023-03-04T22:41:19.414Z,98894.41
2023-03-04T22:46:20.730Z,98896.75
2023-03-04T22:48:52.637Z,98897.28
2023-03-04T22:51:20.689Z,98893.31
2023-03-04T22:53:48.503Z,98895.38
2023-03-04T22:56:15.741Z,98897.44
2023-03-04T22:58:44.468Z,98894.16
2023-03-04T23:01:12.849Z,98900.31
2023-03-04T23:03:41.578Z,98895.66
2023-03-04T23:06:20.232Z,98899.22
2023-03-04T23:08:48.794Z,98900.03
2023-03-04T23:11:21.766Z,98892.22
2023-03-04T23:13:49.921Z,98893.59
2023-03-04T23:16:17.279Z,98889.75
2023-03-04T23:18:46.493Z,98894.69
2023-03-04T23:21:15.941Z,98896.34
2023-03-04T23:23:42.744Z,98889.63
2023-03-04T23:26:24.593Z,98891.94
2023-03-04T23:28:51.538Z,98885.09
2023-03-04T23:31:18.939Z,98890.97
2023-03-04T23:33:47.621Z,98887.97
2023-03-04T23:36:16.993Z,98889.19
2023-03-04T23:38:46.022Z,98890.53
2023-03-04T23:41:14.312Z,98885.88
2023-03-04T23:43:40.882Z,98882.91
2023-03-04T23:46:09.351Z,98884.66
2023-03-04T23:48:35.913Z,98880.13
2023-03-04T23:51:02.474Z,98880.97
2023-03-04T23:53:29.414Z,98875.88
2023-03-04T23:55:56.252Z,98869.56
2023-03-04T23:58:22.746Z,98871.34
